This is the latest recevied weather packets stored in our database for station/object OE5RBO. If no packets are shown the sender has not sent any weather packets the latest 10 day(s).
| Time | Temp. | Humidity | Pressure | Rain* | Wind** | Luminosity | Snow |
|---|---|---|---|---|---|---|---|
| 1778008141 | 15.56° C | 89% | 1005.7 hPa | 0 mm | - | - | - |
| 1778007540 | 16.11° C | 88% | 1005.5 hPa | 0 mm | - | - | - |
| 1778006940 | 16.67° C | 86% | 1005.4 hPa | 0 mm | - | - | - |
| 1778006340 | 17.22° C | 83% | 1005.3 hPa | 0 mm | - | - | - |
| 1778005739 | 17.22° C | 82% | 1005.2 hPa | 0 mm | - | - | - |
| 1778005139 | 17.22° C | 83% | 1005.3 hPa | 0 mm | - | - | - |
| 1778004538 | 16.67° C | 83% | 1005.3 hPa | 0 mm | - | - | - |
| 1778003938 | 16.67° C | 86% | 1005.3 hPa | 0 mm | - | - | - |
| 1778003338 | 16.67° C | 84% | 1005.4 hPa | 0 mm | - | - | - |
| 1778002737 | 17.22° C | 82% | 1005.5 hPa | 0 mm | - | - | - |
| 1778002137 | 17.22° C | 80% | 1005.7 hPa | 0 mm | - | - | - |
| 1778001537 | 17.22° C | 84% | 1005.8 hPa | 0 mm | - | - | - |
| 1778000336 | 17.78° C | 76% | 1005.7 hPa | 0 mm | - | - | - |
| 1777999735 | 17.78° C | 79% | 1005.6 hPa | 0 mm | - | - | - |
| 1777999135 | 17.78° C | 79% | 1005.3 hPa | 0 mm | - | - | - |
| 1777998535 | 19.44° C | 67% | 1005.1 hPa | 0 mm | - | - | - |
| 1777997934 | 23.33° C | 45% | 1004.2 hPa | 0 mm | - | - | - |
| 1777997334 | 23.89° C | 44% | 1004 hPa | 0 mm | - | - | - |
| 1777995533 | 24.44° C | 48% | 1003.9 hPa | 0 mm | - | - | - |
| 1777994933 | 24.44° C | 48% | 1003.9 hPa | 0 mm | - | - | - |
| 1777994332 | 25° C | 45% | 1003.9 hPa | 0 mm | - | - | - |
| 1777993732 | 25° C | 48% | 1003.9 hPa | 0 mm | - | - | - |
| 1777993132 | 25° C | 44% | 1004 hPa | 0 mm | - | - | - |
| 1777992531 | 25° C | 46% | 1004 hPa | 0 mm | - | - | - |
| 1777991931 | 25.56° C | 44% | 1004 hPa | 0 mm | - | - | - |
* Rain since midnight (hover to see other rain measurements)
** Current wind speed in m/s (hover to see current wind gust speed)